sensor_id;sensor_type;location;lat;lon;timestamp;temperature;humidity
19192;DHT22;9728;48.194;16.346;2023-08-08T00:01:27;25.20;60.30
19192;DHT22;9728;48.194;16.346;2023-08-08T00:06:32;25.30;59.90
19192;DHT22;9728;48.194;16.346;2023-08-08T00:11:35;25.30;59.50
19192;DHT22;9728;48.194;16.346;2023-08-08T00:16:41;25.30;59.50
19192;DHT22;9728;48.194;16.346;2023-08-08T00:21:44;25.30;59.30
19192;DHT22;9728;48.194;16.346;2023-08-08T00:26:48;25.30;59.40
19192;DHT22;9728;48.194;16.346;2023-08-08T00:31:53;25.30;59.30
19192;DHT22;9728;48.194;16.346;2023-08-08T00:36:58;25.20;59.20
19192;DHT22;9728;48.194;16.346;2023-08-08T00:42:02;25.20;59.10
19192;DHT22;9728;48.194;16.346;2023-08-08T00:47:08;25.20;59.10
19192;DHT22;9728;48.194;16.346;2023-08-08T00:52:12;25.20;58.60
19192;DHT22;9728;48.194;16.346;2023-08-08T00:57:16;25.20;58.60
19192;DHT22;9728;48.194;16.346;2023-08-08T01:02:20;25.10;58.70
19192;DHT22;9728;48.194;16.346;2023-08-08T01:07:30;25.00;58.60
19192;DHT22;9728;48.194;16.346;2023-08-08T01:12:40;24.90;58.30
19192;DHT22;9728;48.194;16.346;2023-08-08T01:17:46;24.90;58.40
19192;DHT22;9728;48.194;16.346;2023-08-08T01:22:55;24.90;58.70
19192;DHT22;9728;48.194;16.346;2023-08-08T01:28:03;24.90;58.60
19192;DHT22;9728;48.194;16.346;2023-08-08T01:33:07;24.80;58.60
19192;DHT22;9728;48.194;16.346;2023-08-08T01:38:14;24.80;59.00
19192;DHT22;9728;48.194;16.346;2023-08-08T01:43:22;24.90;58.60
19192;DHT22;9728;48.194;16.346;2023-08-08T01:48:27;24.90;58.70
19192;DHT22;9728;48.194;16.346;2023-08-08T01:53:31;24.90;58.80
19192;DHT22;9728;48.194;16.346;2023-08-08T01:58:36;25.00;59.00
19192;DHT22;9728;48.194;16.346;2023-08-08T02:03:39;25.00;58.90
19192;DHT22;9728;48.194;16.346;2023-08-08T02:08:43;25.20;58.90
19192;DHT22;9728;48.194;16.346;2023-08-08T02:13:48;25.20;58.80
19192;DHT22;9728;48.194;16.346;2023-08-08T02:18:51;25.30;58.50
19192;DHT22;9728;48.194;16.346;2023-08-08T02:23:55;25.50;58.50
19192;DHT22;9728;48.194;16.346;2023-08-08T02:28:59;25.50;58.30
19192;DHT22;9728;48.194;16.346;2023-08-08T02:34:03;25.60;58.10
19192;DHT22;9728;48.194;16.346;2023-08-08T02:39:06;25.70;58.10
19192;DHT22;9728;48.194;16.346;2023-08-08T02:44:11;25.80;58.00
19192;DHT22;9728;48.194;16.346;2023-08-08T02:49:15;25.80;57.70
19192;DHT22;9728;48.194;16.346;2023-08-08T02:54:18;25.90;57.70
19192;DHT22;9728;48.194;16.346;2023-08-08T02:59:24;25.90;57.60
19192;DHT22;9728;48.194;16.346;2023-08-08T03:04:28;26.00;57.40
19192;DHT22;9728;48.194;16.346;2023-08-08T03:09:32;26.00;57.30
19192;DHT22;9728;48.194;16.346;2023-08-08T03:14:37;26.10;57.30
19192;DHT22;9728;48.194;16.346;2023-08-08T03:19:42;26.20;57.10
19192;DHT22;9728;48.194;16.346;2023-08-08T03:24:46;26.20;57.10
19192;DHT22;9728;48.194;16.346;2023-08-08T03:29:51;26.10;56.90
19192;DHT22;9728;48.194;16.346;2023-08-08T03:34:55;26.20;56.80
19192;DHT22;9728;48.194;16.346;2023-08-08T03:39:58;26.20;56.80
19192;DHT22;9728;48.194;16.346;2023-08-08T03:45:06;26.20;56.80
19192;DHT22;9728;48.194;16.346;2023-08-08T03:50:10;26.10;56.60
19192;DHT22;9728;48.194;16.346;2023-08-08T03:55:13;26.20;56.70
19192;DHT22;9728;48.194;16.346;2023-08-08T04:00:19;26.20;56.70
19192;DHT22;9728;48.194;16.346;2023-08-08T04:05:22;26.20;56.50
19192;DHT22;9728;48.194;16.346;2023-08-08T04:10:26;26.20;56.60
19192;DHT22;9728;48.194;16.346;2023-08-08T04:15:31;26.20;56.50
19192;DHT22;9728;48.194;16.346;2023-08-08T04:20:34;26.20;56.30
19192;DHT22;9728;48.194;16.346;2023-08-08T04:25:38;26.20;56.40
19192;DHT22;9728;48.194;16.346;2023-08-08T04:30:42;26.20;56.40
19192;DHT22;9728;48.194;16.346;2023-08-08T04:35:46;26.20;56.30
19192;DHT22;9728;48.194;16.346;2023-08-08T04:40:49;26.20;56.30
19192;DHT22;9728;48.194;16.346;2023-08-08T04:45:54;26.20;56.30
19192;DHT22;9728;48.194;16.346;2023-08-08T04:50:58;26.30;56.10
19192;DHT22;9728;48.194;16.346;2023-08-08T04:56:01;26.30;56.20
19192;DHT22;9728;48.194;16.346;2023-08-08T05:01:06;26.30;56.20
19192;DHT22;9728;48.194;16.346;2023-08-08T05:06:14;26.30;56.00
19192;DHT22;9728;48.194;16.346;2023-08-08T05:11:17;26.30;56.10
19192;DHT22;9728;48.194;16.346;2023-08-08T05:16:22;26.40;56.20
19192;DHT22;9728;48.194;16.346;2023-08-08T05:21:26;26.40;56.00
19192;DHT22;9728;48.194;16.346;2023-08-08T05:26:30;26.40;56.00
19192;DHT22;9728;48.194;16.346;2023-08-08T05:31:35;26.50;56.00
19192;DHT22;9728;48.194;16.346;2023-08-08T05:36:38;26.60;55.90
19192;DHT22;9728;48.194;16.346;2023-08-08T05:41:41;26.60;56.00
19192;DHT22;9728;48.194;16.346;2023-08-08T05:46:46;26.60;55.90
19192;DHT22;9728;48.194;16.346;2023-08-08T05:51:50;26.70;55.70
19192;DHT22;9728;48.194;16.346;2023-08-08T05:56:53;26.70;55.70
19192;DHT22;9728;48.194;16.346;2023-08-08T06:01:58;26.80;55.70
19192;DHT22;9728;48.194;16.346;2023-08-08T06:07:03;26.90;55.60
19192;DHT22;9728;48.194;16.346;2023-08-08T06:12:10;26.90;55.50
19192;DHT22;9728;48.194;16.346;2023-08-08T06:17:15;27.00;55.50
19192;DHT22;9728;48.194;16.346;2023-08-08T06:22:19;27.00;55.60
19192;DHT22;9728;48.194;16.346;2023-08-08T06:27:25;27.10;55.90
19192;DHT22;9728;48.194;16.346;2023-08-08T06:32:30;27.20;55.70
19192;DHT22;9728;48.194;16.346;2023-08-08T06:37:33;27.40;55.60
19192;DHT22;9728;48.194;16.346;2023-08-08T06:42:37;27.50;55.60
19192;DHT22;9728;48.194;16.346;2023-08-08T06:47:43;27.70;55.40
19192;DHT22;9728;48.194;16.346;2023-08-08T06:52:46;27.70;55.10
19192;DHT22;9728;48.194;16.346;2023-08-08T06:57:50;27.80;55.10
19192;DHT22;9728;48.194;16.346;2023-08-08T07:02:55;27.80;54.50
19192;DHT22;9728;48.194;16.346;2023-08-08T07:08:03;27.90;54.50
19192;DHT22;9728;48.194;16.346;2023-08-08T07:13:06;27.90;54.50
19192;DHT22;9728;48.194;16.346;2023-08-08T07:18:11;27.90;54.30
19192;DHT22;9728;48.194;16.346;2023-08-08T07:23:14;27.90;54.20
19192;DHT22;9728;48.194;16.346;2023-08-08T07:28:18;27.90;54.40
19192;DHT22;9728;48.194;16.346;2023-08-08T07:33:23;28.00;54.40
19192;DHT22;9728;48.194;16.346;2023-08-08T07:38:26;28.10;54.40
19192;DHT22;9728;48.194;16.346;2023-08-08T07:43:30;28.20;54.50
19192;DHT22;9728;48.194;16.346;2023-08-08T07:48:34;28.30;54.30
19192;DHT22;9728;48.194;16.346;2023-08-08T07:53:38;28.40;54.00
19192;DHT22;9728;48.194;16.346;2023-08-08T07:58:41;28.50;53.90
19192;DHT22;9728;48.194;16.346;2023-08-08T08:03:46;28.60;53.80
19192;DHT22;9728;48.194;16.346;2023-08-08T08:08:50;28.60;54.10
19192;DHT22;9728;48.194;16.346;2023-08-08T08:13:53;28.70;53.90
19192;DHT22;9728;48.194;16.346;2023-08-08T08:18:58;28.80;53.80
19192;DHT22;9728;48.194;16.346;2023-08-08T08:24:02;28.80;53.40
19192;DHT22;9728;48.194;16.346;2023-08-08T08:29:05;28.80;53.30
19192;DHT22;9728;48.194;16.346;2023-08-08T08:34:10;28.80;53.20
19192;DHT22;9728;48.194;16.346;2023-08-08T08:39:14;28.80;53.10
19192;DHT22;9728;48.194;16.346;2023-08-08T08:44:17;28.80;52.90
19192;DHT22;9728;48.194;16.346;2023-08-08T08:49:22;28.80;52.90
19192;DHT22;9728;48.194;16.346;2023-08-08T08:54:26;28.80;52.60
19192;DHT22;9728;48.194;16.346;2023-08-08T08:59:30;28.70;52.80
19192;DHT22;9728;48.194;16.346;2023-08-08T09:04:35;28.70;52.90
19192;DHT22;9728;48.194;16.346;2023-08-08T09:09:39;28.70;52.60
19192;DHT22;9728;48.194;16.346;2023-08-08T09:14:45;28.70;52.60
19192;DHT22;9728;48.194;16.346;2023-08-08T09:19:49;28.70;52.70
19192;DHT22;9728;48.194;16.346;2023-08-08T09:24:53;28.60;52.60
19192;DHT22;9728;48.194;16.346;2023-08-08T09:29:56;28.70;52.70
19192;DHT22;9728;48.194;16.346;2023-08-08T09:35:02;28.80;53.30
19192;DHT22;9728;48.194;16.346;2023-08-08T09:40:06;29.00;53.00
19192;DHT22;9728;48.194;16.346;2023-08-08T09:45:13;29.10;52.80
19192;DHT22;9728;48.194;16.346;2023-08-08T09:50:19;29.30;52.70
19192;DHT22;9728;48.194;16.346;2023-08-08T09:55:22;29.40;52.30
19192;DHT22;9728;48.194;16.346;2023-08-08T10:00:26;29.50;51.80
19192;DHT22;9728;48.194;16.346;2023-08-08T10:05:34;29.70;51.80
19192;DHT22;9728;48.194;16.346;2023-08-08T10:10:39;29.80;51.50
19192;DHT22;9728;48.194;16.346;2023-08-08T10:15:44;29.90;51.60
19192;DHT22;9728;48.194;16.346;2023-08-08T10:20:50;30.10;51.50
19192;DHT22;9728;48.194;16.346;2023-08-08T10:25:55;30.20;50.60
19192;DHT22;9728;48.194;16.346;2023-08-08T10:31:00;30.30;50.80
19192;DHT22;9728;48.194;16.346;2023-08-08T10:36:07;30.40;50.70
19192;DHT22;9728;48.194;16.346;2023-08-08T10:41:13;30.40;50.40
19192;DHT22;9728;48.194;16.346;2023-08-08T10:46:23;30.40;50.50
19192;DHT22;9728;48.194;16.346;2023-08-08T10:51:36;30.50;49.00
19192;DHT22;9728;48.194;16.346;2023-08-08T10:56:40;30.60;49.10
19192;DHT22;9728;48.194;16.346;2023-08-08T11:01:48;30.70;49.80
19192;DHT22;9728;48.194;16.346;2023-08-08T11:06:54;30.80;49.00
19192;DHT22;9728;48.194;16.346;2023-08-08T11:11:58;31.00;48.60
19192;DHT22;9728;48.194;16.346;2023-08-08T11:17:02;31.10;49.00
19192;DHT22;9728;48.194;16.346;2023-08-08T11:22:10;31.30;48.90
19192;DHT22;9728;48.194;16.346;2023-08-08T11:27:14;31.40;47.80
19192;DHT22;9728;48.194;16.346;2023-08-08T11:32:38;31.60;48.90
19192;DHT22;9728;48.194;16.346;2023-08-08T11:37:44;31.80;48.20
19192;DHT22;9728;48.194;16.346;2023-08-08T11:42:48;31.90;48.30
19192;DHT22;9728;48.194;16.346;2023-08-08T11:47:55;32.00;47.80
19192;DHT22;9728;48.194;16.346;2023-08-08T11:53:02;32.20;47.50
19192;DHT22;9728;48.194;16.346;2023-08-08T11:58:12;32.40;47.40
19192;DHT22;9728;48.194;16.346;2023-08-08T12:03:18;32.50;46.30
19192;DHT22;9728;48.194;16.346;2023-08-08T12:08:23;32.60;46.80
19192;DHT22;9728;48.194;16.346;2023-08-08T12:13:28;32.70;46.10
19192;DHT22;9728;48.194;16.346;2023-08-08T12:18:33;32.90;46.00
19192;DHT22;9728;48.194;16.346;2023-08-08T12:23:38;33.00;45.80
19192;DHT22;9728;48.194;16.346;2023-08-08T12:28:42;33.10;45.40
19192;DHT22;9728;48.194;16.346;2023-08-08T12:33:45;33.10;44.90
19192;DHT22;9728;48.194;16.346;2023-08-08T12:38:52;33.20;44.80
19192;DHT22;9728;48.194;16.346;2023-08-08T12:43:56;33.20;44.50
19192;DHT22;9728;48.194;16.346;2023-08-08T12:48:59;33.20;44.60
19192;DHT22;9728;48.194;16.346;2023-08-08T12:54:04;33.30;44.60
19192;DHT22;9728;48.194;16.346;2023-08-08T12:59:08;33.30;43.90
19192;DHT22;9728;48.194;16.346;2023-08-08T13:04:12;33.30;43.80
19192;DHT22;9728;48.194;16.346;2023-08-08T13:09:22;33.30;44.60
19192;DHT22;9728;48.194;16.346;2023-08-08T13:14:26;33.30;44.00
19192;DHT22;9728;48.194;16.346;2023-08-08T13:19:29;33.40;44.20
19192;DHT22;9728;48.194;16.346;2023-08-08T13:24:34;33.40;43.80
19192;DHT22;9728;48.194;16.346;2023-08-08T13:29:38;33.50;43.20
19192;DHT22;9728;48.194;16.346;2023-08-08T13:34:41;33.50;42.90
19192;DHT22;9728;48.194;16.346;2023-08-08T13:39:46;33.40;42.50
19192;DHT22;9728;48.194;16.346;2023-08-08T13:44:49;33.20;42.70
19192;DHT22;9728;48.194;16.346;2023-08-08T13:49:55;33.10;42.80
19192;DHT22;9728;48.194;16.346;2023-08-08T13:55:00;33.00;43.00
19192;DHT22;9728;48.194;16.346;2023-08-08T14:00:05;32.80;43.00
19192;DHT22;9728;48.194;16.346;2023-08-08T14:05:12;32.80;43.40
19192;DHT22;9728;48.194;16.346;2023-08-08T14:10:18;32.80;43.00
19192;DHT22;9728;48.194;16.346;2023-08-08T14:15:22;32.80;42.90
19192;DHT22;9728;48.194;16.346;2023-08-08T14:20:26;32.80;43.10
19192;DHT22;9728;48.194;16.346;2023-08-08T14:25:31;32.80;43.00
19192;DHT22;9728;48.194;16.346;2023-08-08T14:30:34;32.80;42.90
19192;DHT22;9728;48.194;16.346;2023-08-08T14:35:39;32.80;42.70
19192;DHT22;9728;48.194;16.346;2023-08-08T14:40:44;32.80;42.60
19192;DHT22;9728;48.194;16.346;2023-08-08T14:45:47;32.80;42.50
19192;DHT22;9728;48.194;16.346;2023-08-08T14:50:51;32.70;42.30
19192;DHT22;9728;48.194;16.346;2023-08-08T14:55:56;32.70;42.20
19192;DHT22;9728;48.194;16.346;2023-08-08T15:00:59;32.60;41.70
19192;DHT22;9728;48.194;16.346;2023-08-08T15:06:03;32.50;41.80
19192;DHT22;9728;48.194;16.346;2023-08-08T15:11:08;32.40;41.80
19192;DHT22;9728;48.194;16.346;2023-08-08T15:16:13;32.30;41.50
19192;DHT22;9728;48.194;16.346;2023-08-08T15:21:17;32.20;41.80
19192;DHT22;9728;48.194;16.346;2023-08-08T15:26:23;32.00;41.60
19192;DHT22;9728;48.194;16.346;2023-08-08T15:31:26;31.90;41.90
19192;DHT22;9728;48.194;16.346;2023-08-08T15:36:30;31.80;42.00
19192;DHT22;9728;48.194;16.346;2023-08-08T15:41:35;31.70;42.00
19192;DHT22;9728;48.194;16.346;2023-08-08T15:46:38;31.60;42.10
19192;DHT22;9728;48.194;16.346;2023-08-08T15:51:50;31.50;42.40
19192;DHT22;9728;48.194;16.346;2023-08-08T15:57:06;31.50;42.60
19192;DHT22;9728;48.194;16.346;2023-08-08T16:02:10;31.40;42.60
19192;DHT22;9728;48.194;16.346;2023-08-08T16:07:15;31.30;43.10
19192;DHT22;9728;48.194;16.346;2023-08-08T16:12:20;31.30;42.70
19192;DHT22;9728;48.194;16.346;2023-08-08T16:17:23;31.30;43.00
19192;DHT22;9728;48.194;16.346;2023-08-08T16:22:28;31.20;43.20
19192;DHT22;9728;48.194;16.346;2023-08-08T16:27:32;31.10;43.30
19192;DHT22;9728;48.194;16.346;2023-08-08T16:32:35;31.10;43.00
19192;DHT22;9728;48.194;16.346;2023-08-08T16:37:40;31.10;43.50
19192;DHT22;9728;48.194;16.346;2023-08-08T16:42:44;31.00;43.20
19192;DHT22;9728;48.194;16.346;2023-08-08T16:47:47;30.90;43.70
19192;DHT22;9728;48.194;16.346;2023-08-08T16:52:52;30.80;43.80
19192;DHT22;9728;48.194;16.346;2023-08-08T16:57:56;30.80;43.80
19192;DHT22;9728;48.194;16.346;2023-08-08T17:03:00;30.70;44.00
19192;DHT22;9728;48.194;16.346;2023-08-08T17:08:07;30.60;43.90
19192;DHT22;9728;48.194;16.346;2023-08-08T17:13:12;30.50;44.30
19192;DHT22;9728;48.194;16.346;2023-08-08T17:18:16;30.50;44.60
19192;DHT22;9728;48.194;16.346;2023-08-08T17:23:23;30.40;44.70
19192;DHT22;9728;48.194;16.346;2023-08-08T17:28:28;30.40;45.10
19192;DHT22;9728;48.194;16.346;2023-08-08T17:33:33;30.30;45.00
19192;DHT22;9728;48.194;16.346;2023-08-08T17:38:39;30.20;44.90
19192;DHT22;9728;48.194;16.346;2023-08-08T17:43:46;30.10;45.30
19192;DHT22;9728;48.194;16.346;2023-08-08T17:48:51;30.00;45.40
19192;DHT22;9728;48.194;16.346;2023-08-08T17:53:57;30.00;45.60
19192;DHT22;9728;48.194;16.346;2023-08-08T17:59:03;30.00;45.90
19192;DHT22;9728;48.194;16.346;2023-08-08T18:04:09;29.90;45.70
19192;DHT22;9728;48.194;16.346;2023-08-08T18:09:17;29.80;45.80
19192;DHT22;9728;48.194;16.346;2023-08-08T18:14:28;29.70;46.10
19192;DHT22;9728;48.194;16.346;2023-08-08T18:19:36;29.70;45.90
19192;DHT22;9728;48.194;16.346;2023-08-08T18:24:48;29.60;46.00
19192;DHT22;9728;48.194;16.346;2023-08-08T18:29:53;29.60;46.10
19192;DHT22;9728;48.194;16.346;2023-08-08T18:35:05;29.50;46.30
19192;DHT22;9728;48.194;16.346;2023-08-08T18:40:12;29.40;46.30
19192;DHT22;9728;48.194;16.346;2023-08-08T18:45:23;29.40;46.60
19192;DHT22;9728;48.194;16.346;2023-08-08T18:50:31;29.30;46.60
19192;DHT22;9728;48.194;16.346;2023-08-08T18:55:38;29.20;46.80
19192;DHT22;9728;48.194;16.346;2023-08-08T19:00:46;29.20;46.80
19192;DHT22;9728;48.194;16.346;2023-08-08T19:05:55;29.10;46.80
19192;DHT22;9728;48.194;16.346;2023-08-08T19:11:00;29.00;47.00
19192;DHT22;9728;48.194;16.346;2023-08-08T19:16:04;28.90;47.30
19192;DHT22;9728;48.194;16.346;2023-08-08T19:21:10;28.90;47.30
19192;DHT22;9728;48.194;16.346;2023-08-08T19:26:16;28.70;47.60
19192;DHT22;9728;48.194;16.346;2023-08-08T19:31:20;28.70;47.70
19192;DHT22;9728;48.194;16.346;2023-08-08T19:36:24;28.60;47.80
19192;DHT22;9728;48.194;16.346;2023-08-08T19:41:30;28.60;48.00
19192;DHT22;9728;48.194;16.346;2023-08-08T19:46:34;28.50;48.50
19192;DHT22;9728;48.194;16.346;2023-08-08T19:51:39;28.40;48.30
19192;DHT22;9728;48.194;16.346;2023-08-08T19:56:46;28.40;48.60
19192;DHT22;9728;48.194;16.346;2023-08-08T20:01:50;28.30;49.00
19192;DHT22;9728;48.194;16.346;2023-08-08T20:06:55;28.20;48.90
19192;DHT22;9728;48.194;16.346;2023-08-08T20:12:02;28.20;48.90
19192;DHT22;9728;48.194;16.346;2023-08-08T20:17:07;28.10;49.20
19192;DHT22;9728;48.194;16.346;2023-08-08T20:22:12;28.00;49.20
19192;DHT22;9728;48.194;16.346;2023-08-08T20:27:22;27.90;49.40
19192;DHT22;9728;48.194;16.346;2023-08-08T20:32:34;27.90;50.00
19192;DHT22;9728;48.194;16.346;2023-08-08T20:38:10;27.70;49.70
19192;DHT22;9728;48.194;16.346;2023-08-08T20:43:40;27.70;50.40
19192;DHT22;9728;48.194;16.346;2023-08-08T20:48:56;27.60;50.30
19192;DHT22;9728;48.194;16.346;2023-08-08T20:54:05;27.60;50.30
19192;DHT22;9728;48.194;16.346;2023-08-08T20:59:19;27.50;50.70
19192;DHT22;9728;48.194;16.346;2023-08-08T21:04:23;27.40;50.60
19192;DHT22;9728;48.194;16.346;2023-08-08T21:09:32;27.40;50.60
19192;DHT22;9728;48.194;16.346;2023-08-08T21:14:45;27.30;50.90
19192;DHT22;9728;48.194;16.346;2023-08-08T21:20:02;27.30;51.40
19192;DHT22;9728;48.194;16.346;2023-08-08T21:25:06;27.20;51.00
19192;DHT22;9728;48.194;16.346;2023-08-08T21:30:12;27.10;51.10
19192;DHT22;9728;48.194;16.346;2023-08-08T21:35:15;27.10;51.30
19192;DHT22;9728;48.194;16.346;2023-08-08T21:40:19;27.00;51.40
19192;DHT22;9728;48.194;16.346;2023-08-08T21:45:24;26.90;51.60
19192;DHT22;9728;48.194;16.346;2023-08-08T21:50:27;26.90;51.90
19192;DHT22;9728;48.194;16.346;2023-08-08T21:55:30;26.80;51.90
19192;DHT22;9728;48.194;16.346;2023-08-08T22:00:35;26.80;52.10
19192;DHT22;9728;48.194;16.346;2023-08-08T22:05:39;26.80;52.40
19192;DHT22;9728;48.194;16.346;2023-08-08T22:10:43;26.80;53.10
19192;DHT22;9728;48.194;16.346;2023-08-08T22:15:48;26.80;52.60
19192;DHT22;9728;48.194;16.346;2023-08-08T22:20:51;26.70;52.60
19192;DHT22;9728;48.194;16.346;2023-08-08T22:25:55;26.70;52.60
19192;DHT22;9728;48.194;16.346;2023-08-08T22:30:59;26.70;52.70
19192;DHT22;9728;48.194;16.346;2023-08-08T22:36:03;26.70;52.90
19192;DHT22;9728;48.194;16.346;2023-08-08T22:41:07;26.60;52.80
19192;DHT22;9728;48.194;16.346;2023-08-08T22:46:12;26.60;52.80
19192;DHT22;9728;48.194;16.346;2023-08-08T22:51:15;26.60;53.00
19192;DHT22;9728;48.194;16.346;2023-08-08T22:56:19;26.60;52.60
19192;DHT22;9728;48.194;16.346;2023-08-08T23:01:23;26.60;52.70
19192;DHT22;9728;48.194;16.346;2023-08-08T23:06:27;26.50;52.90
19192;DHT22;9728;48.194;16.346;2023-08-08T23:11:30;26.50;52.80
19192;DHT22;9728;48.194;16.346;2023-08-08T23:16:35;26.40;52.90
19192;DHT22;9728;48.194;16.346;2023-08-08T23:21:39;26.40;53.10
19192;DHT22;9728;48.194;16.346;2023-08-08T23:26:42;26.30;53.10
19192;DHT22;9728;48.194;16.346;2023-08-08T23:31:47;26.30;53.20
19192;DHT22;9728;48.194;16.346;2023-08-08T23:36:51;26.30;53.50
19192;DHT22;9728;48.194;16.346;2023-08-08T23:41:55;26.30;53.40
19192;DHT22;9728;48.194;16.346;2023-08-08T23:46:59;26.30;53.50
19192;DHT22;9728;48.194;16.346;2023-08-08T23:52:04;26.30;53.70
19192;DHT22;9728;48.194;16.346;2023-08-08T23:57:07;26.30;53.70
